Time;durP1;ratioP1;P1;durP2;ratioP2;P2;SDS_P1;SDS_P2;PMS_P1;PMS_P2;Temp;Humidity;BMP_temperature;BMP_pressure;BME280_temperature;BME280_humidity;BME280_pressure;Samples;Min_cycle;Max_cycle;Signal;HPM_P1;HPM_P2
2022/07/11 00:01:32;;;;;;;13.23;5.65;;;;;;;16.45;100.00;102377.66;4996261;28;20025;-48
2022/07/11 00:03:57;;;;;;;12.30;6.03;;;;;;;16.46;100.00;102373.94;4995659;28;20048;-47
2022/07/11 00:06:22;;;;;;;14.15;5.75;;;;;;;16.46;100.00;102375.78;4995198;28;20490;-48
2022/07/11 00:08:48;;;;;;;14.98;6.32;;;;;;;16.41;100.00;102370.88;4995682;28;20025;-49
2022/07/11 00:11:13;;;;;;;13.20;5.93;;;;;;;16.43;100.00;102360.81;4993719;28;20030;-47
2022/07/11 00:13:38;;;;;;;13.65;6.22;;;;;;;16.38;100.00;102365.84;4993739;28;20057;-48
2022/07/11 00:16:04;;;;;;;13.68;6.30;;;;;;;16.33;100.00;102373.56;4996257;28;20018;-49
2022/07/11 00:18:29;;;;;;;10.45;5.80;;;;;;;16.32;100.00;102370.00;4994860;28;20120;-49
2022/07/11 00:20:55;;;;;;;14.13;5.80;;;;;;;16.29;100.00;102374.88;4996548;28;20227;-51
2022/07/11 00:23:20;;;;;;;13.32;5.90;;;;;;;16.32;100.00;102372.69;4995260;28;20242;-51
2022/07/11 00:25:45;;;;;;;14.20;5.72;;;;;;;16.28;100.00;102370.50;4995591;28;20025;-51
2022/07/11 00:28:11;;;;;;;10.70;5.80;;;;;;;16.26;100.00;102369.81;4994707;28;20856;-50
2022/07/11 00:30:36;;;;;;;11.93;5.72;;;;;;;16.27;100.00;102366.94;4992298;28;20457;-50
2022/07/11 00:33:01;;;;;;;11.77;5.80;;;;;;;16.24;100.00;102367.28;4993463;28;20026;-51
2022/07/11 00:35:27;;;;;;;13.63;5.72;;;;;;;16.18;100.00;102363.38;4995849;28;20038;-50
2022/07/11 00:37:52;;;;;;;9.00;5.75;;;;;;;16.08;100.00;102356.44;4995517;28;20025;-51
2022/07/11 00:40:17;;;;;;;11.35;6.30;;;;;;;16.00;100.00;102354.50;4995323;28;20022;-50
2022/07/11 00:42:42;;;;;;;9.95;5.68;;;;;;;15.96;100.00;102359.38;4994612;28;20045;-50
2022/07/11 00:45:08;;;;;;;10.35;5.90;;;;;;;15.94;100.00;102357.88;4995784;28;20036;-49
2022/07/11 00:47:33;;;;;;;11.45;5.68;;;;;;;15.96;100.00;102359.38;4994649;28;20084;-49
2022/07/11 00:49:59;;;;;;;10.90;6.25;;;;;;;15.93;100.00;102343.53;4995660;28;20091;-50
2022/07/11 00:52:25;;;;;;;12.10;5.80;;;;;;;15.92;100.00;102349.94;4995329;28;20042;-50
2022/07/11 00:54:51;;;;;;;11.05;5.95;;;;;;;15.92;100.00;102349.94;4994724;28;20192;-51
2022/07/11 00:57:17;;;;;;;13.38;6.40;;;;;;;15.87;100.00;102349.56;4994887;28;20418;-51
2022/07/11 00:59:43;;;;;;;12.55;6.13;;;;;;;15.82;100.00;102352.75;4994695;28;20125;-48
2022/07/11 01:02:08;;;;;;;15.13;6.38;;;;;;;15.76;100.00;102347.13;4994697;28;20022;-50
2022/07/11 01:04:34;;;;;;;12.77;6.60;;;;;;;15.71;100.00;102344.03;4994909;28;20121;-50
2022/07/11 01:06:59;;;;;;;9.13;5.80;;;;;;;15.70;100.00;102343.22;4995602;28;20049;-49
2022/07/11 01:09:25;;;;;;;11.60;5.80;;;;;;;15.69;100.00;102348.75;4995077;28;20045;-49
2022/07/11 01:11:51;;;;;;;9.80;6.30;;;;;;;15.68;100.00;102345.19;4994277;28;20084;-48
2022/07/11 01:14:18;;;;;;;11.23;6.78;;;;;;;15.64;100.00;102343.81;4994954;28;20113;-47
2022/07/11 01:16:43;;;;;;;16.45;7.47;;;;;;;15.60;100.00;102337.91;4995003;28;20522;-49
2022/07/11 01:19:09;;;;;;;20.00;7.50;;;;;;;15.54;100.00;102343.91;4998147;28;20022;-49
2022/07/11 01:21:39;;;;;;;11.02;6.60;;;;;;;15.55;100.00;102336.72;5001609;28;20281;-49
2022/07/11 01:24:04;;;;;;;11.18;6.55;;;;;;;15.57;100.00;102335.53;5001294;28;20022;-47
2022/07/11 01:26:32;;;;;;;12.50;6.85;;;;;;;15.62;100.00;102337.75;5001234;28;20092;-52
2022/07/11 01:29:11;;;;;;;15.25;6.75;;;;;;;15.67;100.00;102343.53;4980194;28;20373;-47
2022/07/11 01:31:44;;;;;;;13.93;7.03;;;;;;;15.65;100.00;102338.28;4981885;28;21178;-47
2022/07/11 01:34:11;;;;;;;14.23;7.15;;;;;;;15.63;100.00;102342.13;4981091;28;20301;-47
2022/07/11 01:36:37;;;;;;;15.60;7.05;;;;;;;15.67;100.00;102348.91;4982353;28;20117;-49
2022/07/11 01:39:03;;;;;;;14.45;6.85;;;;;;;15.68;100.00;102339.81;4982663;28;20180;-51
2022/07/11 01:41:28;;;;;;;14.23;6.82;;;;;;;15.68;100.00;102342.50;4980904;28;20027;-51
2022/07/11 01:43:54;;;;;;;9.00;6.47;;;;;;;15.74;100.00;102339.19;4982434;28;20018;-52
2022/07/11 01:46:21;;;;;;;13.75;6.85;;;;;;;15.80;100.00;102345.81;4981382;28;20085;-50
2022/07/11 01:48:46;;;;;;;16.42;6.97;;;;;;;15.79;100.00;102344.97;4981690;28;20085;-49
2022/07/11 01:51:12;;;;;;;12.88;6.53;;;;;;;15.82;100.00;102343.81;4969954;28;20026;-48
2022/07/11 01:53:37;;;;;;;14.65;6.85;;;;;;;15.82;100.00;102349.22;4981987;28;20034;-50
2022/07/11 01:56:02;;;;;;;11.18;6.72;;;;;;;15.87;100.00;102348.72;4982330;28;20080;-49
2022/07/11 01:58:30;;;;;;;14.73;6.70;;;;;;;15.93;100.00;102343.53;4980513;28;20033;-49
2022/07/11 02:00:56;;;;;;;15.73;7.22;;;;;;;15.98;100.00;102351.97;4982163;28;20052;-48
2022/07/11 02:03:22;;;;;;;13.38;7.03;;;;;;;15.93;100.00;102358.88;4980202;28;20025;-49
2022/07/11 02:05:50;;;;;;;13.10;7.47;;;;;;;15.93;100.00;102357.00;4982334;28;20232;-51
2022/07/11 02:08:17;;;;;;;14.20;7.32;;;;;;;15.92;100.00;102357.16;4981755;28;20422;-47
2022/07/11 02:10:51;;;;;;;13.40;7.43;;;;;;;16.00;100.00;102357.22;4981759;28;20474;-48
2022/07/11 02:13:20;;;;;;;17.60;7.07;;;;;;;16.01;100.00;102348.97;4979117;28;20167;-50
2022/07/11 02:15:46;;;;;;;17.10;7.45;;;;;;;16.03;100.00;102348.81;4982641;28;20037;-48
2022/07/11 02:18:12;;;;;;;16.20;7.72;;;;;;;16.08;100.00;102346.47;4980495;28;20552;-47
2022/07/11 02:20:40;;;;;;;14.30;7.35;;;;;;;16.12;100.00;102344.31;4980745;28;20026;-49
2022/07/11 02:23:06;;;;;;;14.90;7.35;;;;;;;16.11;100.00;102350.72;4981064;28;20022;-47
2022/07/11 02:25:32;;;;;;;15.02;7.18;;;;;;;16.13;100.00;102343.31;4981736;28;20394;-50
2022/07/11 02:27:58;;;;;;;14.63;7.35;;;;;;;16.10;100.00;102344.47;4990611;28;20057;-50
2022/07/11 02:30:23;;;;;;;13.23;7.18;;;;;;;16.11;100.00;102343.47;4998298;28;20143;-51
2022/07/11 02:32:50;;;;;;;12.93;7.07;;;;;;;16.10;100.00;102343.63;4997015;28;20521;-48
2022/07/11 02:35:16;;;;;;;16.38;7.07;;;;;;;16.12;100.00;102347.00;4998705;28;20350;-49
2022/07/11 02:37:41;;;;;;;16.88;7.05;;;;;;;16.12;100.00;102345.13;4998517;28;20022;-48
2022/07/11 02:40:07;;;;;;;17.60;7.07;;;;;;;16.14;100.00;102339.59;4997288;28;20500;-48
2022/07/11 02:42:33;;;;;;;14.88;6.85;;;;;;;16.19;100.00;102337.25;4997904;28;20104;-48
2022/07/11 02:44:58;;;;;;;13.10;7.05;;;;;;;16.19;100.00;102353.44;4995301;28;20305;-47
2022/07/11 02:47:24;;;;;;;11.90;7.00;;;;;;;16.15;100.00;102344.00;4996843;28;20065;-50
2022/07/11 02:49:49;;;;;;;12.00;7.28;;;;;;;16.15;100.00;102344.81;4997840;28;20033;-47
2022/07/11 02:52:14;;;;;;;15.05;8.05;;;;;;;16.14;100.00;102345.84;4997721;28;20025;-48
2022/07/11 02:54:40;;;;;;;17.80;7.75;;;;;;;16.09;100.00;102347.31;4997031;28;20509;-50
2022/07/11 02:57:05;;;;;;;20.27;8.02;;;;;;;16.03;100.00;102343.44;5002827;28;20033;-47
2022/07/11 02:59:30;;;;;;;16.52;7.15;;;;;;;16.06;100.00;102347.66;5018440;28;20033;-48
2022/07/11 03:01:56;;;;;;;14.52;7.57;;;;;;;16.00;100.00;102341.91;4990656;28;20026;-50
2022/07/11 03:04:21;;;;;;;17.08;7.65;;;;;;;15.98;100.00;102330.41;5016474;28;20014;-52
2022/07/11 03:06:46;;;;;;;20.08;7.80;;;;;;;16.02;100.00;102342.59;5000006;28;20021;-51
2022/07/11 03:09:12;;;;;;;17.98;7.43;;;;;;;16.01;100.00;102340.06;5017138;28;20025;-48
2022/07/11 03:11:37;;;;;;;11.88;7.30;;;;;;;16.08;100.00;102346.47;5016432;28;20033;-48
2022/07/11 03:14:03;;;;;;;16.67;7.53;;;;;;;16.15;100.00;102341.28;5017183;28;20112;-48
2022/07/11 03:16:29;;;;;;;15.25;6.88;;;;;;;16.13;100.00;102346.00;4991776;28;20347;-48
2022/07/11 03:18:55;;;;;;;15.52;7.63;;;;;;;16.13;100.00;102344.16;5015598;28;20028;-50
2022/07/11 03:21:21;;;;;;;17.58;7.53;;;;;;;16.14;100.00;102339.59;5016718;28;20017;-48
2022/07/11 03:23:46;;;;;;;17.50;7.22;;;;;;;16.12;100.00;102350.53;5006461;28;20101;-50
2022/07/11 03:26:11;;;;;;;14.65;7.65;;;;;;;16.15;100.00;102349.38;4998437;28;20095;-49
2022/07/11 03:28:37;;;;;;;13.85;7.50;;;;;;;16.16;100.00;102351.09;5015976;28;20085;-47
2022/07/11 03:31:03;;;;;;;20.77;7.10;;;;;;;16.15;100.00;102355.59;5017389;28;20100;-51
2022/07/11 03:33:28;;;;;;;14.88;6.93;;;;;;;16.19;100.00;102353.44;5006784;28;20045;-48
2022/07/11 03:35:54;;;;;;;16.77;7.20;;;;;;;16.17;100.00;102350.06;5015483;28;20104;-51
2022/07/11 03:38:20;;;;;;;18.55;7.05;;;;;;;16.20;100.00;102355.13;5016233;28;20067;-50
2022/07/11 03:40:47;;;;;;;14.80;6.90;;;;;;;16.18;100.00;102354.47;5016690;28;20480;-50
2022/07/11 03:43:12;;;;;;;12.82;6.85;;;;;;;16.14;100.00;102351.25;5015570;28;20021;-48
2022/07/11 03:45:37;;;;;;;16.33;6.53;;;;;;;16.17;100.00;102350.94;5016364;28;20040;-50
2022/07/11 03:48:04;;;;;;;15.77;6.53;;;;;;;16.18;100.00;102344.50;5015937;28;20028;-49
2022/07/11 03:50:29;;;;;;;14.55;7.00;;;;;;;16.25;100.00;102342.00;5009080;28;20560;-48
2022/07/11 03:52:55;;;;;;;14.30;6.72;;;;;;;16.25;100.00;102343.88;5015717;28;20096;-48
2022/07/11 03:55:21;;;;;;;11.23;6.55;;;;;;;16.25;100.00;102352.78;5015458;28;20029;-50
2022/07/11 03:57:46;;;;;;;13.80;6.13;;;;;;;16.22;100.00;102356.69;5016051;28;20466;-50
2022/07/11 04:00:13;;;;;;;16.25;7.05;;;;;;;16.22;100.00;102355.81;5016095;28;20179;-50
2022/07/11 04:02:38;;;;;;;14.57;6.63;;;;;;;16.22;100.00;102353.97;5014856;28;20021;-51
2022/07/11 04:05:04;;;;;;;11.38;6.07;;;;;;;16.27;100.00;102342.69;5015573;28;20071;-51
2022/07/11 04:07:29;;;;;;;12.95;6.57;;;;;;;16.22;100.00;102343.19;5015835;28;20349;-51
2022/07/11 04:09:55;;;;;;;13.52;6.35;;;;;;;16.19;100.00;102348.03;5015255;28;20075;-50
2022/07/11 04:12:21;;;;;;;14.55;6.38;;;;;;;16.20;100.00;102345.19;5015440;28;20055;-47
2022/07/11 04:14:46;;;;;;;11.07;6.05;;;;;;;16.26;100.00;102338.31;5016192;28;20105;-50
2022/07/11 04:17:12;;;;;;;15.00;6.60;;;;;;;16.29;100.00;102348.75;4996460;28;20017;-51
2022/07/11 04:19:38;;;;;;;12.10;6.30;;;;;;;16.23;100.00;102352.94;5016243;28;20185;-47
2022/07/11 04:22:04;;;;;;;14.60;6.05;;;;;;;16.21;100.00;102352.28;4996063;28;20448;-52
2022/07/11 04:24:29;;;;;;;12.52;5.72;;;;;;;16.24;100.00;102345.69;4999639;28;20032;-48
2022/07/11 04:26:54;;;;;;;13.65;6.10;;;;;;;16.29;100.00;102347.91;4995795;28;20020;-50
2022/07/11 04:29:20;;;;;;;10.55;5.72;;;;;;;16.32;100.00;102344.91;5015413;28;20017;-48
2022/07/11 04:31:45;;;;;;;16.05;6.43;;;;;;;16.34;100.00;102345.59;5014580;28;20268;-50
2022/07/11 04:34:10;;;;;;;14.85;5.78;;;;;;;16.36;100.00;102348.94;5015646;28;20033;-50
2022/07/11 04:36:36;;;;;;;12.32;5.70;;;;;;;16.37;100.00;102348.78;5015210;28;20368;-48
2022/07/11 04:39:01;;;;;;;14.48;6.10;;;;;;;16.38;100.00;102358.59;5015422;28;20491;-49
2022/07/11 04:41:27;;;;;;;10.60;5.43;;;;;;;16.41;100.00;102352.00;5014194;28;20021;-49
2022/07/11 04:43:52;;;;;;;10.15;5.32;;;;;;;16.49;100.00;102359.28;5014796;28;20676;-48
2022/07/11 04:46:17;;;;;;;12.13;5.53;;;;;;;16.55;100.00;102356.78;5015344;28;20104;-47
2022/07/11 04:48:42;;;;;;;10.82;5.55;;;;;;;16.58;100.00;102363.69;4996223;28;20025;-48
2022/07/11 04:51:08;;;;;;;12.20;5.80;;;;;;;16.54;100.00;102363.19;4997068;28;20028;-50
2022/07/11 04:53:34;;;;;;;13.27;4.95;;;;;;;16.53;100.00;102364.22;5014214;28;20096;-47
2022/07/11 04:55:59;;;;;;;11.48;5.32;;;;;;;16.57;100.00;102368.25;4997780;28;20047;-50
2022/07/11 04:58:25;;;;;;;14.43;5.18;;;;;;;16.62;100.00;102373.16;5014334;28;20507;-52
2022/07/11 05:00:51;;;;;;;12.90;4.90;;;;;;;16.66;100.00;102374.50;5010235;28;20026;-49
2022/07/11 05:03:17;;;;;;;11.48;5.18;;;;;;;16.64;100.00;102378.41;5004398;28;20056;-48
2022/07/11 05:05:42;;;;;;;13.65;4.90;;;;;;;16.65;100.00;102378.25;5015102;28;20120;-48
2022/07/11 05:08:08;;;;;;;9.18;4.78;;;;;;;16.68;100.00;102371.66;5014498;28;20120;-47
2022/07/11 05:10:36;;;;;;;7.43;3.55;;;;;;;16.57;100.00;102370.13;5015214;28;20025;-50
2022/07/11 05:13:01;;;;;;;6.82;3.08;;;;;;;16.57;100.00;102376.34;5015053;28;20116;-49
2022/07/11 05:15:26;;;;;;;8.95;3.05;;;;;;;16.54;100.00;102367.75;5014857;28;20101;-49
2022/07/11 05:17:51;;;;;;;5.65;2.67;;;;;;;16.51;100.00;102368.06;5012590;28;20495;-50
2022/07/11 05:20:17;;;;;;;8.60;2.80;;;;;;;16.53;100.00;102372.31;5014881;28;20083;-49
2022/07/11 05:22:42;;;;;;;10.25;2.90;;;;;;;16.54;100.00;102378.53;5008802;28;20049;-50
2022/07/11 05:25:08;;;;;;;8.35;2.72;;;;;;;16.56;100.00;102385.47;5011730;28;20009;-51
2022/07/11 05:27:33;;;;;;;6.25;2.95;;;;;;;16.55;100.00;102381.06;5014787;28;20419;-51
2022/07/11 05:29:58;;;;;;;8.23;2.83;;;;;;;16.53;100.00;102383.09;4997146;28;20344;-49
2022/07/11 05:32:24;;;;;;;8.20;2.60;;;;;;;16.57;100.00;102384.44;5013496;28;20132;-49
2022/07/11 05:34:49;;;;;;;8.32;2.60;;;;;;;16.54;100.00;102384.75;5002510;28;20300;-47
2022/07/11 05:37:15;;;;;;;5.32;2.70;;;;;;;16.55;100.00;102382.94;5014750;28;20416;-48
2022/07/11 05:39:40;;;;;;;7.65;2.47;;;;;;;16.57;100.00;102380.91;5014422;28;20464;-50
2022/07/11 05:42:05;;;;;;;7.82;2.75;;;;;;;16.54;100.00;102389.31;5013956;28;20064;-50
2022/07/11 05:44:31;;;;;;;5.22;2.72;;;;;;;16.54;100.00;102390.16;5015382;28;20036;-49
2022/07/11 05:47:03;;;;;;;6.75;2.55;;;;;;;16.60;100.00;102402.16;5011099;28;20385;-48
2022/07/11 05:49:31;;;;;;;5.25;2.85;;;;;;;16.55;100.00;102401.81;4995806;28;20033;-50
2022/07/11 05:51:57;;;;;;;6.35;2.92;;;;;;;16.51;100.00;102395.88;4992433;28;20408;-49
2022/07/11 05:54:23;;;;;;;11.15;3.08;;;;;;;16.52;100.00;102404.81;4994055;28;20108;-49
2022/07/11 05:56:48;;;;;;;4.50;2.90;;;;;;;16.46;100.00;102402.75;4993604;28;20025;-52
2022/07/11 05:59:14;;;;;;;4.25;2.65;;;;;;;16.44;100.00;102402.09;4992882;28;20105;-49
2022/07/11 06:01:39;;;;;;;4.93;2.70;;;;;;;16.38;100.00;102399.03;4993183;28;20563;-50
2022/07/11 06:04:05;;;;;;;3.05;2.20;;;;;;;16.44;100.00;102410.19;4994060;28;20074;-49
2022/07/11 06:06:31;;;;;;;3.95;2.20;;;;;;;16.47;100.00;102412.56;5016953;28;20044;-49
2022/07/11 06:08:56;;;;;;;3.92;2.20;;;;;;;16.47;100.00;102424.19;5016017;28;20044;-50
2022/07/11 06:11:21;;;;;;;3.00;2.35;;;;;;;16.50;100.00;102409.53;5011654;28;20445;-50
2022/07/11 06:13:49;;;;;;;4.13;2.40;;;;;;;16.64;100.00;102421.56;5015763;28;20120;-48
2022/07/11 06:16:15;;;;;;;2.63;1.95;;;;;;;16.66;100.00;102408.75;5003169;28;20021;-48
2022/07/11 06:18:41;;;;;;;4.57;1.88;;;;;;;16.66;100.00;102409.59;4997784;28;20425;-49
2022/07/11 06:21:06;;;;;;;4.47;1.90;;;;;;;16.67;100.00;102413.16;5005422;28;20036;-48
2022/07/11 06:23:34;;;;;;;2.70;2.10;;;;;;;16.76;100.00;102412.16;4997049;28;20018;-51
2022/07/11 06:25:59;;;;;;;3.30;2.38;;;;;;;16.78;100.00;102411.00;4979890;28;20097;-49
2022/07/11 06:28:25;;;;;;;3.03;2.15;;;;;;;16.87;100.00;102419.13;4997012;28;20046;-50
2022/07/11 06:30:50;;;;;;;2.92;2.00;;;;;;;16.96;100.00;102420.84;5004364;28;20029;-50
2022/07/11 06:33:16;;;;;;;3.67;1.90;;;;;;;17.01;100.00;102421.22;5001639;28;20041;-50
2022/07/11 06:35:42;;;;;;;3.58;2.15;;;;;;;17.08;100.00;102419.53;4997585;28;20052;-48
2022/07/11 06:38:07;;;;;;;4.00;2.20;;;;;;;17.10;100.00;102419.38;4997118;28;20112;-48
2022/07/11 06:40:33;;;;;;;5.15;2.42;;;;;;;17.11;100.00;102415.66;4997533;28;20030;-48
2022/07/11 06:42:58;;;;;;;5.53;2.60;;;;;;;17.10;100.00;102411.25;5011542;28;20048;-48
2022/07/11 06:45:23;;;;;;;4.18;2.50;;;;;;;17.22;100.00;102409.09;5000437;28;20021;-49
2022/07/11 06:47:49;;;;;;;5.38;2.28;;;;;;;17.27;100.00;102412.13;4996351;28;20188;-48
2022/07/11 06:50:14;;;;;;;4.68;2.15;;;;;;;17.37;100.00;102409.28;4998470;28;20060;-48
2022/07/11 06:52:39;;;;;;;3.60;2.17;;;;;;;17.37;100.00;102402.00;4976329;28;20030;-48
2022/07/11 06:55:05;;;;;;;4.32;2.40;;;;;;;17.43;100.00;102404.06;4994985;28;20069;-48
2022/07/11 06:57:30;;;;;;;4.30;2.60;;;;;;;17.52;100.00;102410.28;4997348;28;20315;-48
2022/07/11 06:59:55;;;;;;;5.20;2.40;;;;;;;17.56;100.00;102394.59;4994061;28;20026;-52
2022/07/11 07:02:23;;;;;;;5.30;2.53;;;;;;;17.65;100.00;102402.53;4994790;28;20116;-48
2022/07/11 07:04:48;;;;;;;4.85;2.63;;;;;;;17.74;100.00;102400.66;5002164;28;20456;-50
2022/07/11 07:07:14;;;;;;;5.75;2.85;;;;;;;17.78;100.00;102402.00;5008868;28;20026;-48
2022/07/11 07:09:39;;;;;;;5.10;2.90;;;;;;;17.94;100.00;102400.31;5016408;28;20040;-50
2022/07/11 07:12:05;;;;;;;7.63;2.80;;;;;;;18.08;100.00;102399.63;5009131;28;20114;-48
2022/07/11 07:14:31;;;;;;;3.78;2.70;;;;;;;18.17;100.00;102397.72;4998547;28;20416;-48
2022/07/11 07:16:56;;;;;;;6.07;3.17;;;;;;;18.19;100.00;102399.22;4998369;28;20108;-47
2022/07/11 07:19:21;;;;;;;3.30;2.42;;;;;;;18.26;100.00;102393.97;4990071;28;20026;-46
2022/07/11 07:21:47;;;;;;;3.45;2.10;;;;;;;18.23;100.00;102397.88;5002938;28;20072;-50
2022/07/11 07:24:13;;;;;;;2.63;2.10;;;;;;;18.31;100.00;102394.28;4995420;28;20030;-50
2022/07/11 07:26:38;;;;;;;5.18;2.42;;;;;;;18.44;100.00;102399.16;4995608;28;20026;-48
2022/07/11 07:29:03;;;;;;;7.90;3.35;;;;;;;18.55;100.00;102395.22;4996173;28;20586;-46
2022/07/11 07:31:28;;;;;;;5.45;2.75;;;;;;;18.58;100.00;102400.28;4977299;28;20405;-46
2022/07/11 07:33:54;;;;;;;4.05;2.60;;;;;;;18.59;100.00;102402.81;4996987;28;20243;-46
2022/07/11 07:36:19;;;;;;;3.58;2.55;;;;;;;18.62;100.00;102396.22;4996518;28;20448;-49
2022/07/11 07:38:47;;;;;;;3.30;2.78;;;;;;;18.64;100.00;102408.53;4996842;28;20029;-50
2022/07/11 07:41:13;;;;;;;4.65;2.15;;;;;;;18.63;100.00;102406.88;4978281;28;20038;-46
2022/07/11 07:43:39;;;;;;;3.47;1.90;;;;;;;18.60;100.00;102401.81;4999426;28;20041;-45
2022/07/11 07:46:04;;;;;;;7.03;2.10;;;;;;;18.64;100.00;102410.41;5001624;28;20708;-47
2022/07/11 07:48:30;;;;;;;7.10;2.60;;;;;;;18.60;100.00;102415.34;4995722;28;20068;-48
2022/07/11 07:50:55;;;;;;;6.70;3.10;;;;;;;18.48;100.00;102415.88;4996310;28;20572;-46
2022/07/11 07:53:20;;;;;;;8.60;2.45;;;;;;;18.44;100.00;102420.81;4995712;28;20025;-46
2022/07/11 07:55:46;;;;;;;3.90;2.70;;;;;;;18.31;100.00;102415.94;4996753;28;20576;-46
2022/07/11 07:58:11;;;;;;;6.95;2.72;;;;;;;18.32;100.00;102414.94;4994597;28;20030;-47
2022/07/11 08:03:21;;;;;;;4.43;3.10;;;;;;;18.24;100.00;102423.91;4989933;28;20106;-49
2022/07/11 08:05:47;;;;;;;5.20;3.13;;;;;;;18.22;100.00;102415.13;5008607;28;20029;-48
2022/07/11 08:08:12;;;;;;;4.93;2.58;;;;;;;18.24;100.00;102426.63;5014906;28;20435;-50
2022/07/11 08:10:37;;;;;;;4.35;2.90;;;;;;;18.27;100.00;102422.72;4997072;28;20045;-49
2022/07/11 08:13:03;;;;;;;6.10;3.30;;;;;;;18.23;100.00;102418.69;5006174;28;20026;-48
2022/07/11 08:15:28;;;;;;;5.88;3.38;;;;;;;18.32;100.00;102428.44;4996241;28;20512;-49
2022/07/11 08:17:53;;;;;;;5.85;3.30;;;;;;;18.49;100.00;102423.81;4994205;28;20033;-48
2022/07/11 08:20:19;;;;;;;4.57;3.70;;;;;;;18.60;100.00;102426.16;4995784;28;20022;-50
2022/07/11 08:22:44;;;;;;;7.25;3.78;;;;;;;18.79;100.00;102419.47;5006585;28;20447;-48
2022/07/11 08:25:09;;;;;;;6.93;3.92;;;;;;;19.00;100.00;102424.28;4996329;28;20025;-48
2022/07/11 08:27:35;;;;;;;6.47;3.88;;;;;;;19.14;100.00;102421.81;4973279;28;20046;-48
2022/07/11 08:30:03;;;;;;;7.00;4.00;;;;;;;19.27;100.00;102422.06;4974878;28;20173;-49
2022/07/11 08:32:28;;;;;;;8.95;3.72;;;;;;;19.27;100.00;102432.91;4987563;28;20025;-49
2022/07/11 08:34:54;;;;;;;5.32;3.85;;;;;;;19.25;100.00;102434.97;4988973;28;20314;-49
2022/07/11 08:37:19;;;;;;;6.88;3.90;;;;;;;19.15;100.00;102432.47;4987830;28;20096;-50
2022/07/11 08:39:44;;;;;;;6.88;3.30;;;;;;;19.22;100.00;102435.31;4985595;28;20040;-51
2022/07/11 08:42:09;;;;;;;7.15;3.50;;;;;;;19.32;100.00;102429.66;4989881;28;20057;-50
2022/07/11 08:44:37;;;;;;;7.72;4.00;;;;;;;19.36;100.00;102434.56;4976341;28;20035;-49
2022/07/11 08:47:03;;;;;;;4.80;3.45;;;;;;;19.28;100.00;102423.78;4977247;28;20030;-47
2022/07/11 08:49:30;;;;;;;7.60;3.90;;;;;;;19.25;100.00;102423.28;4976726;28;20030;-47
2022/07/11 08:51:56;;;;;;;5.68;3.83;;;;;;;19.16;100.00;102428.75;4979269;28;20025;-47
2022/07/11 08:54:22;;;;;;;5.30;4.05;;;;;;;19.13;100.00;102433.69;4973322;28;20430;-46
2022/07/11 08:56:49;;;;;;;8.70;4.38;;;;;;;19.14;100.00;102421.81;4988529;28;20037;-48
2022/07/11 08:59:17;;;;;;;7.97;4.05;;;;;;;19.17;100.00;102432.31;4987261;28;20021;-48
2022/07/11 09:01:45;;;;;;;5.45;3.80;;;;;;;19.14;100.00;102422.66;4976836;28;20026;-51
2022/07/11 09:04:11;;;;;;;6.63;4.18;;;;;;;18.98;100.00;102423.63;4990107;28;20314;-48
2022/07/11 09:06:37;;;;;;;5.03;3.67;;;;;;;19.10;100.00;102421.34;4982875;28;20307;-50
2022/07/11 09:09:02;;;;;;;4.57;3.50;;;;;;;19.39;100.00;102422.50;4989781;28;20103;-48
2022/07/11 09:11:47;;;;;;;5.68;3.90;;;;;;;19.57;100.00;102419.50;4989053;28;20425;-48
2022/07/11 09:14:21;;;;;;;6.30;3.85;;;;;;;19.99;100.00;102419.97;4992514;28;20314;-51
2022/07/11 09:16:54;;;;;;;13.27;3.60;;;;;;;20.21;100.00;102418.19;4985163;28;20425;-48
2022/07/11 09:19:39;;;;;;;4.93;3.67;;;;;;;20.37;100.00;102422.63;4991664;28;20292;-51
2022/07/11 09:27:55;;;;;;;;;;;;;;;20.91;100.00;102413.28;5000240;28;20072;-48
2022/07/11 09:30:24;;;;;;;5.75;4.10;;;;;;;20.82;99.13;102409.84;5008144;28;20232;-48
2022/07/11 09:32:57;;;;;;;5.88;3.63;;;;;;;20.96;97.31;102414.41;4990989;28;20022;-51
2022/07/11 09:35:25;;;;;;;3.97;2.97;;;;;;;20.86;97.06;102409.28;4998682;28;20262;-51
2022/07/11 09:37:50;;;;;;;3.38;2.92;;;;;;;20.87;97.76;102407.38;5004061;28;20384;-51
2022/07/11 09:40:17;;;;;;;3.60;3.00;;;;;;;20.81;94.52;102416.31;4996383;28;20041;-50
2022/07/11 09:42:47;;;;;;;3.47;2.83;;;;;;;20.67;97.20;102423.44;4997932;28;20025;-50
2022/07/11 09:45:13;;;;;;;4.13;2.60;;;;;;;20.66;96.99;102416.34;4999105;28;20141;-48
2022/07/11 09:47:49;;;;;;;2.83;2.40;;;;;;;20.62;96.98;102417.69;4996278;28;20497;-50
2022/07/11 09:50:27;;;;;;;4.88;2.78;;;;;;;20.50;97.84;102417.34;5010196;28;20037;-51
2022/07/11 09:53:07;;;;;;;3.53;2.50;;;;;;;20.37;99.64;102419.91;5011913;28;20515;-51
2022/07/11 09:55:38;;;;;;;2.78;2.30;;;;;;;20.22;98.35;102423.44;5002398;28;20070;-50
2022/07/11 09:58:05;;;;;;;7.93;2.75;;;;;;;20.20;98.94;102416.53;4997677;28;20540;-51
2022/07/11 10:00:32;;;;;;;3.03;2.55;;;;;;;20.32;99.94;102415.03;4998107;28;20120;-50
2022/07/11 10:02:59;;;;;;;4.10;2.53;;;;;;;20.47;98.48;102418.56;5005654;28;20029;-50
2022/07/11 10:05:25;;;;;;;2.50;1.92;;;;;;;20.59;98.45;102413.50;5016000;28;20032;-51
2022/07/11 10:07:51;;;;;;;5.30;2.17;;;;;;;20.71;97.83;102424.75;5013855;28;20026;-50
2022/07/11 10:10:17;;;;;;;2.95;2.30;;;;;;;20.77;96.33;102423.13;5013927;28;20060;-51
2022/07/11 10:12:46;;;;;;;2.70;2.10;;;;;;;20.87;97.41;102423.69;5015514;28;20022;-50
2022/07/11 10:15:14;;;;;;;2.72;2.10;;;;;;;20.89;97.28;102420.78;5014177;28;20021;-53
2022/07/11 10:17:44;;;;;;;3.60;2.35;;;;;;;20.75;98.08;102423.34;5015426;28;20069;-53
2022/07/11 10:20:37;;;;;;;3.50;2.50;;;;;;;20.92;98.83;102421.22;5015690;28;20108;-52
2022/07/11 10:23:08;;;;;;;6.65;2.28;;;;;;;20.96;98.63;102414.41;5013835;28;20028;-53
2022/07/11 10:25:40;;;;;;;;;;;;;;;21.05;96.86;102420.56;5015371;28;20460;-53
2022/07/11 10:28:17;;;;;;;4.60;1.90;;;;;;;20.91;99.06;102435.84;5013048;28;20334;-50
2022/07/11 10:30:59;;;;;;;3.10;1.60;;;;;;;20.93;97.98;102431.06;5012010;28;20025;-51
2022/07/11 10:33:26;;;;;;;2.08;1.38;;;;;;;20.79;96.48;102431.94;5014040;28;20215;-52
2022/07/11 10:35:53;;;;;;;1.90;1.60;;;;;;;20.77;96.95;102428.56;5016892;28;20029;-52
2022/07/11 10:38:19;;;;;;;2.45;1.30;;;;;;;20.90;95.46;102439.59;5010799;28;20395;-53
2022/07/11 10:40:48;;;;;;;1.20;1.10;;;;;;;20.88;95.26;102435.41;5011642;28;20296;-48
2022/07/11 10:43:31;;;;;;;1.52;1.25;;;;;;;20.74;95.26;102439.81;5000692;28;20473;-52
2022/07/11 10:46:05;;;;;;;1.70;1.10;;;;;;;20.70;97.05;102442.06;4990760;28;20465;-52
2022/07/11 10:48:34;;;;;;;3.80;0.93;;;;;;;20.91;98.72;102443.16;4978905;28;20034;-50
2022/07/11 10:50:59;;;;;;;0.95;0.82;;;;;;;21.07;96.54;102434.78;4979200;28;20630;-52
2022/07/11 10:53:30;;;;;;;1.30;0.90;;;;;;;21.22;94.79;102435.56;4996745;28;20038;-51
2022/07/11 10:56:11;;;;;;;;;;;;;;;21.53;93.77;102439.84;4997585;28;20041;-50
2022/07/11 10:58:42;;;;;;;1.15;1.00;;;;;;;21.32;92.55;102434.41;4995966;28;19919;-51
2022/07/11 11:01:12;;;;;;;2.65;1.33;;;;;;;21.33;93.67;102431.47;4996730;28;20097;-53
2022/07/11 11:03:43;;;;;;;1.17;0.80;;;;;;;21.43;89.77;102436.59;4997854;28;20030;-51
2022/07/11 11:06:09;;;;;;;1.40;0.93;;;;;;;21.42;91.43;102432.22;5012159;28;20037;-51
2022/07/11 11:08:38;;;;;;;3.35;1.00;;;;;;;21.50;90.26;102440.25;5016954;28;20025;-50
2022/07/11 11:11:22;;;;;;;2.40;1.00;;;;;;;21.61;90.03;102439.72;5016223;28;20471;-49
2022/07/11 11:14:16;;;;;;;1.23;1.13;;;;;;;21.45;89.88;102439.13;5017500;28;20025;-50
2022/07/11 11:16:42;;;;;;;2.00;0.98;;;;;;;21.51;91.64;102438.38;5014914;28;20049;-50
2022/07/11 11:19:27;;;;;;;1.27;1.05;;;;;;;21.63;92.78;102433.25;5016474;28;20091;-50
2022/07/11 11:22:01;;;;;;;3.50;1.25;;;;;;;21.68;89.05;102441.66;5016163;28;20026;-49
2022/07/11 11:24:26;;;;;;;0.90;0.90;;;;;;;21.59;88.15;102440.97;5016212;28;20108;-49